Time;durP1;ratioP1;P1;durP2;ratioP2;P2;SDS_P1;SDS_P2;PMS_P1;PMS_P2;Temp;Humidity;BMP_temperature;BMP_pressure;BME280_temperature;BME280_humidity;BME280_pressure;Samples;Min_cycle;Max_cycle;Signal;HPM_P1;HPM_P2
2022/03/07 00:01:31;;;;;;;9.50;5.70;;;;;;;;;;5012337;28;20034;-70
2022/03/07 00:03:58;;;;;;;12.07;5.85;;;;;;;;;;5010889;28;20121;-72
2022/03/07 00:06:26;;;;;;;11.18;5.75;;;;;;;;;;5004451;28;20053;-72
2022/03/07 00:08:53;;;;;;;14.82;6.43;;;;;;;;;;5001263;28;20041;-72
2022/03/07 00:11:21;;;;;;;9.55;6.43;;;;;;;;;;4997490;28;20100;-69
2022/03/07 00:13:48;;;;;;;11.60;6.25;;;;;;;;;;4991471;28;20048;-69
2022/03/07 00:16:16;;;;;;;9.45;5.97;;;;;;;;;;4992536;28;20042;-71
2022/03/07 00:18:43;;;;;;;14.27;6.15;;;;;;;;;;4992833;28;20140;-71
2022/03/07 00:21:12;;;;;;;14.18;6.85;;;;;;;;;;4993286;28;20042;-72
2022/03/07 00:23:40;;;;;;;11.00;6.10;;;;;;;;;;4993191;28;20042;-71
2022/03/07 00:26:08;;;;;;;11.82;6.38;;;;;;;;;;4992903;28;20050;-69
2022/03/07 00:28:35;;;;;;;11.15;5.82;;;;;;;;;;4993557;28;20058;-71
2022/03/07 00:31:07;;;;;;;13.68;6.53;;;;;;;;;;4992689;28;20043;-72
2022/03/07 00:33:35;;;;;;;10.77;6.13;;;;;;;;;;4992019;28;20062;-69
2022/03/07 00:36:06;;;;;;;12.27;6.32;;;;;;;;;;4991673;28;20043;-71
2022/03/07 00:38:34;;;;;;;10.63;6.28;;;;;;;;;;4991506;28;20038;-72
2022/03/07 00:41:03;;;;;;;10.68;6.30;;;;;;;;;;4993009;28;20117;-69
2022/03/07 00:43:30;;;;;;;14.88;6.57;;;;;;;;;;4991412;28;20038;-69
2022/03/07 00:45:59;;;;;;;11.35;6.78;;;;;;;;;;4993077;28;20049;-72
2022/03/07 00:48:27;;;;;;;9.13;6.03;;;;;;;;;;4993100;28;20050;-71
2022/03/07 00:50:54;;;;;;;11.07;6.38;;;;;;;;;;4993362;28;20101;-72
2022/03/07 00:53:25;;;;;;;9.52;6.47;;;;;;;;;;4993060;28;20068;-72
2022/03/07 00:55:54;;;;;;;10.98;6.57;;;;;;;;;;4998726;28;20046;-69
2022/03/07 00:58:24;;;;;;;10.85;6.05;;;;;;;;;;5010742;28;20042;-72
2022/03/07 01:00:52;;;;;;;12.02;6.30;;;;;;;;;;5010928;28;20568;-72
2022/03/07 01:03:21;;;;;;;12.70;6.13;;;;;;;;;;5010940;28;20077;-72
2022/03/07 01:05:49;;;;;;;10.05;6.35;;;;;;;;;;5012439;28;20563;-71
2022/03/07 01:08:17;;;;;;;12.32;6.32;;;;;;;;;;5010744;28;20072;-71
2022/03/07 01:10:44;;;;;;;10.60;5.55;;;;;;;;;;5014543;28;20560;-69
2022/03/07 01:13:12;;;;;;;9.02;5.68;;;;;;;;;;5014889;28;20050;-70
2022/03/07 01:15:40;;;;;;;9.85;5.97;;;;;;;;;;5015025;28;20058;-69
2022/03/07 01:18:09;;;;;;;12.73;5.75;;;;;;;;;;5014919;28;20504;-73
2022/03/07 01:20:36;;;;;;;14.75;6.32;;;;;;;;;;5014447;28;20084;-72
2022/03/07 01:23:04;;;;;;;8.82;5.53;;;;;;;;;;5014554;28;20560;-69
2022/03/07 01:25:31;;;;;;;8.68;5.32;;;;;;;;;;5014752;28;20056;-71
2022/03/07 01:27:59;;;;;;;10.88;5.90;;;;;;;;;;5016185;28;20052;-73
2022/03/07 01:30:27;;;;;;;10.93;5.40;;;;;;;;;;5014049;28;20149;-72
2022/03/07 01:32:55;;;;;;;13.25;5.53;;;;;;;;;;5014397;28;20068;-71
2022/03/07 01:35:24;;;;;;;11.88;5.60;;;;;;;;;;5015818;28;20042;-72
2022/03/07 01:37:52;;;;;;;8.68;5.85;;;;;;;;;;5014476;28;20042;-72
2022/03/07 01:40:20;;;;;;;9.32;5.25;;;;;;;;;;5014396;28;20129;-69
2022/03/07 01:42:48;;;;;;;13.27;5.75;;;;;;;;;;5015577;28;20049;-71
2022/03/07 01:45:16;;;;;;;9.88;5.45;;;;;;;;;;5015753;28;20069;-73
2022/03/07 01:47:45;;;;;;;11.20;5.47;;;;;;;;;;5014045;28;20540;-72
2022/03/07 01:50:14;;;;;;;9.77;5.18;;;;;;;;;;5014328;28;20092;-72
2022/03/07 01:52:43;;;;;;;8.23;5.45;;;;;;;;;;5014063;28;20496;-71
2022/03/07 01:55:12;;;;;;;6.68;5.10;;;;;;;;;;5013790;28;20054;-72
2022/03/07 01:57:50;;;;;;;9.20;4.65;;;;;;;;;;5013934;28;20486;-72
2022/03/07 02:00:19;;;;;;;10.73;5.38;;;;;;;;;;5013789;28;20049;-69
2022/03/07 02:02:46;;;;;;;9.15;5.25;;;;;;;;;;5013821;28;20077;-70
2022/03/07 02:05:18;;;;;;;9.05;5.30;;;;;;;;;;5013818;28;20046;-69
2022/03/07 02:07:55;;;;;;;10.60;5.38;;;;;;;;;;5013458;28;20129;-72
2022/03/07 02:10:24;;;;;;;9.13;4.97;;;;;;;;;;4997574;28;20386;-73
2022/03/07 02:12:53;;;;;;;8.02;5.15;;;;;;;;;;5015367;28;20045;-71
2022/03/07 02:15:20;;;;;;;10.50;5.07;;;;;;;;;;5013858;28;20045;-69
2022/03/07 02:17:50;;;;;;;7.35;4.78;;;;;;;;;;5013454;28;20535;-69
2022/03/07 02:20:18;;;;;;;9.00;4.90;;;;;;;;;;5013272;28;20054;-73
2022/03/07 02:22:49;;;;;;;7.03;4.47;;;;;;;;;;5014545;28;20046;-71
2022/03/07 02:25:17;;;;;;;9.60;5.32;;;;;;;;;;5013327;28;20054;-69
2022/03/07 02:27:45;;;;;;;7.65;5.03;;;;;;;;;;4997786;28;20141;-71
2022/03/07 02:30:12;;;;;;;10.93;5.07;;;;;;;;;;5013527;28;20041;-71
2022/03/07 02:32:42;;;;;;;9.88;4.85;;;;;;;;;;5013072;28;20100;-72
2022/03/07 02:35:13;;;;;;;7.72;4.68;;;;;;;;;;5013253;28;20108;-71
2022/03/07 02:37:42;;;;;;;;;;;;;;;;;;5013752;28;20046;-73
2022/03/07 02:40:12;;;;;;;10.13;5.97;;;;;;;;;;5013219;28;19921;-72
2022/03/07 02:43:00;;;;;;;10.40;6.47;;;;;;;;;;5013000;28;20125;-73
2022/03/07 02:45:29;;;;;;;10.02;5.03;;;;;;;;;;5014426;28;20041;-72
2022/03/07 02:47:57;;;;;;;7.93;4.85;;;;;;;;;;5013062;28;20137;-72
2022/03/07 02:50:25;;;;;;;9.88;5.50;;;;;;;;;;5013060;28;20045;-69
2022/03/07 02:52:52;;;;;;;10.13;5.43;;;;;;;;;;5012975;28;20074;-72
2022/03/07 02:55:20;;;;;;;9.88;5.53;;;;;;;;;;5013868;28;20046;-73
2022/03/07 02:57:47;;;;;;;8.15;5.13;;;;;;;;;;5015996;28;20034;-71
2022/03/07 03:00:15;;;;;;;8.30;5.30;;;;;;;;;;5012711;28;20120;-69
2022/03/07 03:02:42;;;;;;;11.70;5.38;;;;;;;;;;5012950;28;20045;-70
2022/03/07 03:05:11;;;;;;;9.23;5.50;;;;;;;;;;5014116;28;20038;-71
2022/03/07 03:07:39;;;;;;;9.95;5.43;;;;;;;;;;5013651;28;20042;-71
2022/03/07 03:10:07;;;;;;;10.60;5.80;;;;;;;;;;5014396;28;20042;-73
2022/03/07 03:12:35;;;;;;;9.27;5.07;;;;;;;;;;5014112;28;20045;-72
2022/03/07 03:15:03;;;;;;;6.80;4.63;;;;;;;;;;5012709;28;20046;-72
2022/03/07 03:17:31;;;;;;;10.68;5.35;;;;;;;;;;5013888;28;20133;-71
2022/03/07 03:19:58;;;;;;;10.45;4.53;;;;;;;;;;5013312;28;20049;-69
2022/03/07 03:22:25;;;;;;;12.25;5.38;;;;;;;;;;5013848;28;20507;-71
2022/03/07 03:24:53;;;;;;;9.20;5.10;;;;;;;;;;5013652;28;20501;-73
2022/03/07 03:27:21;;;;;;;7.68;5.03;;;;;;;;;;5013675;28;20049;-71
2022/03/07 03:29:49;;;;;;;8.10;5.00;;;;;;;;;;5013983;28;20132;-72
2022/03/07 03:32:17;;;;;;;7.20;5.10;;;;;;;;;;5011806;28;20042;-72
2022/03/07 03:34:44;;;;;;;9.30;5.07;;;;;;;;;;5012451;28;20053;-72
2022/03/07 03:37:12;;;;;;;10.95;5.13;;;;;;;;;;5012055;28;20042;-72
2022/03/07 03:39:40;;;;;;;8.10;4.75;;;;;;;;;;5013337;28;20065;-69
2022/03/07 03:42:07;;;;;;;8.95;5.15;;;;;;;;;;5013340;28;20038;-69
2022/03/07 03:44:35;;;;;;;10.25;5.10;;;;;;;;;;5012851;28;20053;-71
2022/03/07 03:47:02;;;;;;;8.32;4.80;;;;;;;;;;5013129;28;20133;-69
2022/03/07 03:49:30;;;;;;;14.05;7.65;;;;;;;;;;5012090;28;20050;-71
2022/03/07 03:51:58;;;;;;;17.20;9.38;;;;;;;;;;5012998;28;20060;-72
2022/03/07 03:54:25;;;;;;;13.80;8.73;;;;;;;;;;5013718;28;20053;-69
2022/03/07 03:56:53;;;;;;;11.20;6.80;;;;;;;;;;4995217;28;20140;-72
2022/03/07 03:59:20;;;;;;;10.32;5.57;;;;;;;;;;5013145;28;20038;-72
2022/03/07 04:01:48;;;;;;;7.38;4.78;;;;;;;;;;5011943;28;20129;-71
2022/03/07 04:04:16;;;;;;;7.95;4.88;;;;;;;;;;5013099;28;20046;-69
2022/03/07 04:06:43;;;;;;;10.00;5.93;;;;;;;;;;5012941;28;20397;-69
2022/03/07 04:09:12;;;;;;;11.77;5.30;;;;;;;;;;5013107;28;20045;-71
2022/03/07 04:11:40;;;;;;;7.65;4.45;;;;;;;;;;5012913;28;20448;-72
2022/03/07 04:14:08;;;;;;;6.68;4.25;;;;;;;;;;5012182;28;20038;-71
2022/03/07 04:16:38;;;;;;;8.23;5.28;;;;;;;;;;5012855;28;20474;-72
2022/03/07 04:19:09;;;;;;;7.97;4.80;;;;;;;;;;5012689;28;20056;-71
2022/03/07 04:21:37;;;;;;;7.38;5.53;;;;;;;;;;5011710;28;20140;-72
2022/03/07 04:24:04;;;;;;;9.60;5.72;;;;;;;;;;5013031;28;20574;-69
2022/03/07 04:26:32;;;;;;;9.63;5.20;;;;;;;;;;5012742;28;20050;-69
2022/03/07 04:29:05;;;;;;;6.43;4.03;;;;;;;;;;5011514;28;20056;-71
2022/03/07 04:31:32;;;;;;;7.88;4.70;;;;;;;;;;5011279;28;20132;-71
2022/03/07 04:34:00;;;;;;;9.52;4.65;;;;;;;;;;5012910;28;20478;-72
2022/03/07 04:36:30;;;;;;;9.25;4.53;;;;;;;;;;5012500;28;20054;-72
2022/03/07 04:38:57;;;;;;;10.23;4.22;;;;;;;;;;5012827;28;20042;-69
2022/03/07 04:41:25;;;;;;;9.60;4.32;;;;;;;;;;5012626;28;20049;-69
2022/03/07 04:43:52;;;;;;;7.55;4.25;;;;;;;;;;5012468;28;20407;-69
2022/03/07 04:46:20;;;;;;;8.00;4.10;;;;;;;;;;5016164;28;20038;-71
2022/03/07 04:48:47;;;;;;;5.13;4.00;;;;;;;;;;5015291;28;20049;-71
2022/03/07 04:51:17;;;;;;;8.38;4.25;;;;;;;;;;5016698;28;20042;-71
2022/03/07 04:53:44;;;;;;;7.70;4.15;;;;;;;;;;5015602;28;20046;-71
2022/03/07 04:56:12;;;;;;;7.32;4.00;;;;;;;;;;5016043;28;20038;-69
2022/03/07 04:58:39;;;;;;;5.25;4.03;;;;;;;;;;5016683;28;20042;-71
2022/03/07 05:01:07;;;;;;;7.30;3.88;;;;;;;;;;5016460;28;20038;-72
2022/03/07 05:03:36;;;;;;;5.88;3.55;;;;;;;;;;5016357;28;20100;-72
2022/03/07 05:06:04;;;;;;;6.10;3.75;;;;;;;;;;5016228;28;20038;-69
2022/03/07 05:08:31;;;;;;;5.13;3.45;;;;;;;;;;5016015;28;20338;-71
2022/03/07 05:10:59;;;;;;;6.25;3.42;;;;;;;;;;5016611;28;20161;-69
2022/03/07 05:13:27;;;;;;;8.23;3.28;;;;;;;;;;5015090;28;20069;-72
2022/03/07 05:15:54;;;;;;;5.35;3.08;;;;;;;;;;4998302;28;20109;-69
2022/03/07 05:18:22;;;;;;;4.60;3.42;;;;;;;;;;5015725;28;20064;-71
2022/03/07 05:20:49;;;;;;;9.68;3.63;;;;;;;;;;5015927;28;20512;-71
2022/03/07 05:23:23;;;;;;;4.78;3.88;;;;;;;;;;5015916;28;20037;-72
2022/03/07 05:25:51;;;;;;;7.78;3.83;;;;;;;;;;5015865;28;20034;-72
2022/03/07 05:28:18;;;;;;;6.97;3.25;;;;;;;;;;5014543;28;20042;-72
2022/03/07 05:30:46;;;;;;;4.70;3.30;;;;;;;;;;5015659;28;20052;-71
2022/03/07 05:33:13;;;;;;;5.65;3.22;;;;;;;;;;5014542;28;20140;-69
2022/03/07 05:35:41;;;;;;;3.95;2.55;;;;;;;;;;5015734;28;20066;-72
2022/03/07 05:38:09;;;;;;;6.32;3.70;;;;;;;;;;5015540;28;20048;-71
2022/03/07 05:40:36;;;;;;;7.78;3.65;;;;;;;;;;5015636;28;20038;-72
2022/03/07 05:43:04;;;;;;;6.85;3.97;;;;;;;;;;5015645;28;20041;-71
2022/03/07 05:45:31;;;;;;;7.25;4.07;;;;;;;;;;5014907;28;20034;-70
2022/03/07 05:48:00;;;;;;;5.38;3.83;;;;;;;;;;4998093;28;20394;-69
2022/03/07 05:50:27;;;;;;;6.65;4.18;;;;;;;;;;5015293;28;20046;-69
2022/03/07 05:52:56;;;;;;;8.65;4.82;;;;;;;;;;5015718;28;20053;-72
2022/03/07 05:55:25;;;;;;;7.75;5.50;;;;;;;;;;5015107;28;20044;-70
2022/03/07 05:57:59;;;;;;;5.80;4.20;;;;;;;;;;5014487;28;20470;-72
2022/03/07 06:00:28;;;;;;;6.70;3.50;;;;;;;;;;5014924;28;20453;-71
2022/03/07 06:02:56;;;;;;;7.50;4.07;;;;;;;;;;5015493;28;20042;-72
2022/03/07 06:05:24;;;;;;;8.82;3.95;;;;;;;;;;5015386;28;20410;-69
2022/03/07 06:07:53;;;;;;;7.88;4.55;;;;;;;;;;5014989;28;20050;-69
2022/03/07 06:10:24;;;;;;;9.70;5.03;;;;;;;;;;5015259;28;20077;-73
2022/03/07 06:12:52;;;;;;;19.52;8.93;;;;;;;;;;5015383;28;20056;-73
2022/03/07 06:15:20;;;;;;;24.65;11.55;;;;;;;;;;5015238;28;20464;-69
2022/03/07 06:17:50;;;;;;;27.90;12.38;;;;;;;;;;5014818;28;20044;-71
2022/03/07 06:20:18;;;;;;;24.83;12.18;;;;;;;;;;5014602;28;20405;-72
2022/03/07 06:22:46;;;;;;;25.70;11.48;;;;;;;;;;5013735;28;20398;-72
2022/03/07 06:25:13;;;;;;;19.00;9.68;;;;;;;;;;5014796;28;20045;-71
2022/03/07 06:27:41;;;;;;;12.98;6.88;;;;;;;;;;5014629;28;20129;-71
2022/03/07 06:30:09;;;;;;;10.48;6.78;;;;;;;;;;5012666;28;20192;-71
2022/03/07 06:32:36;;;;;;;11.65;6.60;;;;;;;;;;5013388;28;20064;-72
2022/03/07 06:35:05;;;;;;;11.52;4.90;;;;;;;;;;5014548;28;20436;-72
2022/03/07 06:37:32;;;;;;;7.43;4.72;;;;;;;;;;5014241;28;20092;-72
2022/03/07 06:40:01;;;;;;;11.05;5.03;;;;;;;;;;5014051;28;20042;-71
2022/03/07 06:42:29;;;;;;;9.80;5.40;;;;;;;;;;5013854;28;20481;-68
2022/03/07 06:44:56;;;;;;;12.65;5.50;;;;;;;;;;5014779;28;20382;-70
2022/03/07 06:47:24;;;;;;;12.75;5.68;;;;;;;;;;5013374;28;20052;-69
2022/03/07 06:49:56;;;;;;;8.35;5.30;;;;;;;;;;5013387;28;20074;-69
2022/03/07 06:52:24;;;;;;;8.98;5.55;;;;;;;;;;5014664;28;20126;-72
2022/03/07 06:54:52;;;;;;;11.70;6.80;;;;;;;;;;5014393;28;20045;-70
2022/03/07 06:57:21;;;;;;;13.10;5.93;;;;;;;;;;5013649;28;20065;-72
2022/03/07 06:59:49;;;;;;;11.27;5.55;;;;;;;;;;5013771;28;20065;-71
2022/03/07 07:02:17;;;;;;;12.60;5.65;;;;;;;;;;5014406;28;20464;-72
2022/03/07 07:04:45;;;;;;;9.25;6.05;;;;;;;;;;5012267;28;20037;-72
2022/03/07 07:07:14;;;;;;;11.60;5.47;;;;;;;;;;5014207;28;20052;-71
2022/03/07 07:09:42;;;;;;;9.13;5.70;;;;;;;;;;5013882;28;20048;-72
2022/03/07 07:12:14;;;;;;;11.25;5.32;;;;;;;;;;5013580;28;20041;-69
2022/03/07 07:14:42;;;;;;;9.65;5.57;;;;;;;;;;5012954;28;20103;-72
2022/03/07 07:17:09;;;;;;;9.02;5.00;;;;;;;;;;5013709;28;20038;-69
2022/03/07 07:19:36;;;;;;;10.20;4.93;;;;;;;;;;5014416;22;20061;-77
2022/03/07 07:22:07;;;;;;;11.07;4.90;;;;;;;;;;4994366;28;20432;-75
2022/03/07 07:24:35;;;;;;;9.38;4.90;;;;;;;;;;5008757;28;20046;-71
2022/03/07 07:27:02;;;;;;;10.20;6.50;;;;;;;;;;5009071;28;20061;-75
2022/03/07 07:29:30;;;;;;;8.55;5.05;;;;;;;;;;4993850;28;20048;-71
2022/03/07 07:32:01;;;;;;;8.32;4.72;;;;;;;;;;4993021;28;20042;-78
2022/03/07 07:34:30;;;;;;;9.50;5.25;;;;;;;;;;4993747;28;20038;-78
2022/03/07 07:36:59;;;;;;;14.02;7.57;;;;;;;;;;4989669;28;20042;-75
2022/03/07 07:39:36;;;;;;;10.85;5.40;;;;;;;;;;4990450;28;20040;-71
2022/03/07 07:42:04;;;;;;;7.72;5.55;;;;;;;;;;4993527;28;20045;-76
2022/03/07 07:44:38;;;;;;;13.88;5.30;;;;;;;;;;4991582;28;20046;-71
2022/03/07 07:47:07;;;;;;;17.90;5.75;;;;;;;;;;4993106;28;20074;-72
2022/03/07 07:49:35;;;;;;;6.78;4.78;;;;;;;;;;4993300;28;20097;-78
2022/03/07 07:52:03;;;;;;;7.25;5.07;;;;;;;;;;4993274;28;20042;-75
2022/03/07 07:54:31;;;;;;;6.93;4.25;;;;;;;;;;4991736;28;20038;-71
2022/03/07 07:57:02;;;;;;;14.00;5.03;;;;;;;;;;4991209;28;20062;-71
2022/03/07 07:59:29;;;;;;;4.25;3.50;;;;;;;;;;4992674;28;20064;-71
2022/03/07 08:01:57;;;;;;;7.97;4.00;;;;;;;;;;4992322;28;20497;-77
2022/03/07 08:04:27;;;;;;;6.07;3.60;;;;;;;;;;4992914;28;20113;-71
2022/03/07 08:06:55;;;;;;;4.80;3.60;;;;;;;;;;4992016;28;20050;-71
2022/03/07 08:09:23;;;;;;;6.45;3.58;;;;;;;;;;4991286;28;20044;-72
2022/03/07 08:11:50;;;;;;;9.18;3.92;;;;;;;;;;4992161;28;20046;-71
2022/03/07 08:14:17;;;;;;;10.63;3.20;;;;;;;;;;4992726;28;20045;-77
2022/03/07 08:16:45;;;;;;;8.00;3.20;;;;;;;;;;4990616;28;20053;-71
2022/03/07 08:19:13;;;;;;;7.22;3.80;;;;;;;;;;4991023;28;20088;-77
2022/03/07 08:21:40;;;;;;;9.85;3.60;;;;;;;;;;4993065;28;20042;-76
2022/03/07 08:24:10;;;;;;;5.53;3.20;;;;;;;;;;4993301;28;20045;-74
2022/03/07 08:26:39;;;;;;;10.73;3.50;;;;;;;;;;4993033;28;20046;-74
2022/03/07 08:29:06;;;;;;;6.00;3.85;;;;;;;;;;4991761;28;20046;-71
2022/03/07 08:31:34;;;;;;;5.82;3.13;;;;;;;;;;4992735;28;20144;-74
2022/03/07 08:34:02;;;;;;;6.88;3.20;;;;;;;;;;4991726;28;20050;-76
2022/03/07 08:36:32;;;;;;;5.60;3.40;;;;;;;;;;4992746;28;20046;-71
2022/03/07 08:39:00;;;;;;;4.97;3.13;;;;;;;;;;4991754;28;20066;-71
2022/03/07 08:41:27;;;;;;;7.40;3.17;;;;;;;;;;4992667;28;20041;-71
2022/03/07 08:43:55;;;;;;;5.43;3.35;;;;;;;;;;4992420;28;20104;-71
2022/03/07 08:46:24;;;;;;;5.20;3.22;;;;;;;;;;4992801;28;20062;-76
2022/03/07 08:48:53;;;;;;;4.70;3.40;;;;;;;;;;4991557;28;20042;-71
2022/03/07 08:51:21;;;;;;;4.47;3.10;;;;;;;;;;4993212;28;20497;-71
2022/03/07 08:53:50;;;;;;;3.83;3.00;;;;;;;;;;4992554;28;20113;-76
2022/03/07 08:56:18;;;;;;;4.70;2.90;;;;;;;;;;4992055;28;20093;-71
2022/03/07 08:58:54;;;;;;;4.50;2.97;;;;;;;;;;4991796;28;20042;-77
2022/03/07 09:01:22;;;;;;;5.38;3.00;;;;;;;;;;4992662;28;20062;-75
2022/03/07 09:03:50;;;;;;;3.90;3.00;;;;;;;;;;4991693;28;20156;-72
2022/03/07 09:06:19;;;;;;;6.53;2.90;;;;;;;;;;4992885;28;20040;-72
2022/03/07 09:08:46;;;;;;;6.00;2.70;;;;;;;;;;4991891;28;20042;-75
2022/03/07 09:11:18;;;;;;;3.25;2.95;;;;;;;;;;4992666;28;20070;-71
2022/03/07 09:13:45;;;;;;;4.10;3.10;;;;;;;;;;4992350;28;20042;-71
2022/03/07 09:16:14;;;;;;;5.50;3.03;;;;;;;;;;4992385;28;20042;-77
2022/03/07 09:18:41;;;;;;;9.20;3.10;;;;;;;;;;4992038;28;20129;-72
2022/03/07 09:21:09;;;;;;;4.70;3.10;;;;;;;;;;4990679;28;20043;-72
2022/03/07 09:23:40;;;;;;;5.55;3.17;;;;;;;;;;4992896;28;20049;-76
2022/03/07 09:26:10;;;;;;;3.67;3.10;;;;;;;;;;4992709;28;20042;-72
2022/03/07 09:28:40;;;;;;;4.38;3.10;;;;;;;;;;4991415;28;20058;-71
2022/03/07 09:31:07;;;;;;;6.32;3.17;;;;;;;;;;4993340;28;20050;-77
2022/03/07 09:33:42;;;;;;;4.63;3.13;;;;;;;;;;4995902;28;20046;-78
2022/03/07 09:36:10;;;;;;;5.78;3.50;;;;;;;;;;4996420;28;20046;-77
2022/03/07 09:38:38;;;;;;;5.45;3.30;;;;;;;;;;4994849;28;20043;-72
2022/03/07 09:41:06;;;;;;;5.70;3.20;;;;;;;;;;4996542;28;20034;-77
2022/03/07 09:43:33;;;;;;;5.75;3.38;;;;;;;;;;4994146;28;20042;-75
2022/03/07 09:46:01;;;;;;;4.28;3.50;;;;;;;;;;4995288;28;20401;-72
2022/03/07 09:48:28;;;;;;;7.72;3.67;;;;;;;;;;4978529;28;20057;-71
2022/03/07 09:50:58;;;;;;;6.38;3.75;;;;;;;;;;4993952;28;20128;-75
2022/03/07 09:53:32;;;;;;;8.13;3.25;;;;;;;;;;4995859;28;20049;-76
2022/03/07 09:56:01;;;;;;;3.78;3.00;;;;;;;;;;4995378;28;20049;-78
2022/03/07 09:58:28;;;;;;;12.50;3.63;;;;;;;;;;4995876;28;20035;-71
2022/03/07 10:01:09;;;;;;;5.30;3.30;;;;;;;;;;4994587;28;20472;-75
2022/03/07 10:03:37;;;;;;;4.97;3.67;;;;;;;;;;4995773;28;20050;-77
2022/03/07 10:06:13;;;;;;;4.00;3.08;;;;;;;;;;4994602;28;20074;-75
2022/03/07 10:08:50;;;;;;;7.40;3.20;;;;;;;;;;4995447;28;20046;-75
2022/03/07 10:11:19;;;;;;;6.60;2.90;;;;;;;;;;4994488;28;20053;-77
2022/03/07 10:13:50;;;;;;;5.20;3.10;;;;;;;;;;4995597;28;20051;-72
2022/03/07 10:16:20;;;;;;;4.25;3.20;;;;;;;;;;4995508;28;20494;-77
2022/03/07 10:18:55;;;;;;;6.75;3.45;;;;;;;;;;4995079;28;20476;-71
2022/03/07 10:21:25;;;;;;;6.95;4.07;;;;;;;;;;4992047;28;20206;-72
2022/03/07 10:23:57;;;;;;;5.57;3.47;;;;;;;;;;4990927;28;20578;-71
2022/03/07 10:26:24;;;;;;;5.85;3.72;;;;;;;;;;4991052;28;20045;-78
2022/03/07 10:28:56;;;;;;;6.65;3.50;;;;;;;;;;4975809;28;20049;-75
2022/03/07 10:31:46;;;;;;;5.18;3.70;;;;;;;;;;4975353;28;20540;-71
2022/03/07 10:34:14;;;;;;;5.72;3.55;;;;;;;;;;4975820;28;20051;-75
2022/03/07 10:36:43;;;;;;;7.10;3.70;;;;;;;;;;4976073;28;20050;-71
2022/03/07 10:39:12;;;;;;;4.90;3.80;;;;;;;;;;4975445;28;20035;-71
2022/03/07 10:41:40;;;;;;;6.28;3.60;;;;;;;;;;4975978;28;20030;-72
2022/03/07 10:44:09;;;;;;;6.63;3.85;;;;;;;;;;4982282;28;20377;-72
2022/03/07 10:46:38;;;;;;;5.70;3.58;;;;;;;;;;4994769;28;20038;-77
2022/03/07 10:49:12;;;;;;;6.68;4.13;;;;;;;;;;4995172;28;20049;-76
2022/03/07 10:51:50;;;;;;;6.60;3.70;;;;;;;;;;4995170;28;20061;-75
2022/03/07 10:54:19;;;;;;;8.23;3.45;;;;;;;;;;4993433;28;20062;-71
2022/03/07 10:56:53;;;;;;;6.05;3.50;;;;;;;;;;4993208;28;20057;-77
2022/03/07 10:59:28;;;;;;;8.73;4.20;;;;;;;;;;4993558;28;20042;-71
2022/03/07 11:02:06;;;;;;;6.07;4.10;;;;;;;;;;4992668;28;20059;-75
2022/03/07 11:04:34;;;;;;;6.63;3.90;;;;;;;;;;4991764;28;20062;-77
2022/03/07 11:07:03;;;;;;;6.70;4.03;;;;;;;;;;4994237;28;20042;-77
2022/03/07 11:09:33;;;;;;;4.60;3.70;;;;;;;;;;4993817;28;20050;-75
2022/03/07 11:12:02;;;;;;;4.85;3.60;;;;;;;;;;4994129;28;20045;-75
2022/03/07 11:14:30;;;;;;;6.90;4.20;;;;;;;;;;4994085;28;20041;-77
2022/03/07 11:16:58;;;;;;;7.07;3.90;;;;;;;;;;4994677;28;20046;-72
2022/03/07 11:19:27;;;;;;;6.63;3.72;;;;;;;;;;4994281;28;20050;-71
2022/03/07 11:21:57;;;;;;;5.03;3.70;;;;;;;;;;4994223;28;20061;-73
2022/03/07 11:24:25;;;;;;;5.30;3.80;;;;;;;;;;4994303;28;20485;-71
2022/03/07 11:26:54;;;;;;;6.63;3.90;;;;;;;;;;4994483;28;20042;-71
2022/03/07 11:29:39;;;;;;;5.80;3.60;;;;;;;;;;4994168;28;20039;-75
2022/03/07 11:32:10;;;;;;;8.23;4.22;;;;;;;;;;4993841;28;20045;-75
2022/03/07 11:34:38;;;;;;;4.90;3.63;;;;;;;;;;4994345;28;20043;-77
2022/03/07 11:37:29;;;;;;;5.32;4.00;;;;;;;;;;4994030;28;20038;-77
2022/03/07 11:39:58;;;;;;;5.78;4.00;;;;;;;;;;4993963;28;20034;-72
2022/03/07 11:42:36;;;;;;;6.47;4.07;;;;;;;;;;4994099;28;20038;-76
2022/03/07 11:45:05;;;;;;;6.50;3.90;;;;;;;;;;4992100;28;20046;-71
2022/03/07 11:47:36;;;;;;;7.32;4.55;;;;;;;;;;4991762;28;20045;-71
2022/03/07 11:50:04;;;;;;;4.63;3.90;;;;;;;;;;4991192;28;20509;-71
2022/03/07 11:52:33;;;;;;;6.05;4.30;;;;;;;;;;4993527;28;20043;-72
2022/03/07 11:55:02;;;;;;;7.80;4.50;;;;;;;;;;4992868;28;20038;-71
2022/03/07 11:57:37;;;;;;;6.18;4.00;;;;;;;;;;4991975;28;20042;-71
2022/03/07 12:00:14;;;;;;;7.10;3.85;;;;;;;;;;4993413;28;20042;-71
2022/03/07 12:02:45;;;;;;;4.93;3.67;;;;;;;;;;4991653;28;20125;-72
2022/03/07 12:05:23;;;;;;;5.95;3.95;;;;;;;;;;4993695;28;20038;-71
2022/03/07 12:07:52;;;;;;;6.55;3.40;;;;;;;;;;4992753;28;20070;-71
2022/03/07 12:10:29;;;;;;;5.22;3.28;;;;;;;;;;4992041;28;20431;-75
2022/03/07 12:13:05;;;;;;;6.25;3.63;;;;;;;;;;4992552;28;20050;-76
2022/03/07 12:15:49;;;;;;;7.53;3.30;;;;;;;;;;4993233;28;20035;-71
2022/03/07 12:18:18;;;;;;;7.50;3.65;;;;;;;;;;4992882;28;20042;-71
2022/03/07 12:20:51;;;;;;;5.95;3.55;;;;;;;;;;4992972;28;20482;-71
2022/03/07 12:23:19;;;;;;;5.50;3.17;;;;;;;;;;4991706;28;20442;-71
2022/03/07 12:25:49;;;;;;;9.10;3.47;;;;;;;;;;4993578;28;20092;-76
2022/03/07 12:28:17;;;;;;;5.93;3.72;;;;;;;;;;4993405;28;20066;-75
2022/03/07 12:30:45;;;;;;;4.97;3.50;;;;;;;;;;4993158;28;20562;-71
2022/03/07 12:33:12;;;;;;;5.93;3.40;;;;;;;;;;4992101;28;20093;-75
2022/03/07 12:35:40;;;;;;;6.22;4.38;;;;;;;;;;4983230;28;20391;-71
2022/03/07 12:38:09;;;;;;;3.75;3.20;;;;;;;;;;4981795;28;20049;-77
2022/03/07 12:40:39;;;;;;;5.22;3.20;;;;;;;;;;4982998;28;20401;-71
2022/03/07 12:43:08;;;;;;;6.30;3.53;;;;;;;;;;4985111;28;20050;-71
2022/03/07 12:45:45;;;;;;;5.75;3.25;;;;;;;;;;4992041;28;20034;-72
2022/03/07 12:48:16;;;;;;;4.13;3.15;;;;;;;;;;4993062;28;20035;-75
2022/03/07 12:50:43;;;;;;;5.30;3.10;;;;;;;;;;4992834;28;20500;-71
2022/03/07 12:53:14;;;;;;;6.57;3.47;;;;;;;;;;4991567;28;20046;-71
2022/03/07 12:55:43;;;;;;;5.57;3.70;;;;;;;;;;4991766;28;20378;-75
2022/03/07 12:58:17;;;;;;;7.55;3.40;;;;;;;;;;4980660;28;20053;-71
2022/03/07 13:00:45;;;;;;;8.65;3.30;;;;;;;;;;4976207;28;20446;-71
2022/03/07 13:03:13;;;;;;;6.43;3.08;;;;;;;;;;4989746;28;20062;-71
2022/03/07 13:05:45;;;;;;;7.57;3.38;;;;;;;;;;4993443;28;20073;-74
2022/03/07 13:08:13;;;;;;;4.65;3.05;;;;;;;;;;4992313;28;20074;-70
2022/03/07 13:10:54;;;;;;;3.40;3.10;;;;;;;;;;4996345;28;20039;-71
2022/03/07 13:13:22;;;;;;;4.55;2.90;;;;;;;;;;4991338;28;20137;-74
2022/03/07 13:15:49;;;;;;;5.55;3.15;;;;;;;;;;4984101;28;20062;-71
2022/03/07 13:18:17;;;;;;;8.10;3.40;;;;;;;;;;4981516;28;20062;-74
2022/03/07 13:20:47;;;;;;;6.68;3.10;;;;;;;;;;4988541;28;20038;-70
2022/03/07 13:23:17;;;;;;;6.57;3.25;;;;;;;;;;4987250;28;20038;-76
2022/03/07 13:25:49;;;;;;;5.55;3.20;;;;;;;;;;4980225;28;20395;-74
2022/03/07 13:28:27;;;;;;;8.77;3.03;;;;;;;;;;4979642;28;20051;-70
2022/03/07 13:30:57;;;;;;;6.32;3.40;;;;;;;;;;4990279;28;20045;-70
2022/03/07 13:33:32;;;;;;;2.78;2.55;;;;;;;;;;4993253;28;20039;-74
2022/03/07 13:36:08;;;;;;;9.05;3.40;;;;;;;;;;4983235;28;20155;-70
2022/03/07 13:38:38;;;;;;;6.38;3.47;;;;;;;;;;4990582;28;20035;-71
2022/03/07 13:41:08;;;;;;;6.63;3.40;;;;;;;;;;4985855;28;20035;-70
2022/03/07 13:43:37;;;;;;;6.43;3.28;;;;;;;;;;4974599;28;20031;-70
2022/03/07 13:46:18;;;;;;;6.35;3.28;;;;;;;;;;4974311;28;21417;-70
2022/03/07 13:48:48;;;;;;;3.53;3.03;;;;;;;;;;4972160;28;20609;-75
2022/03/07 13:51:15;;;;;;;4.30;2.90;;;;;;;;;;4980003;28;20398;-70
2022/03/07 13:53:45;;;;;;;3.75;2.90;;;;;;;;;;4975483;28;20135;-70
2022/03/07 13:56:12;;;;;;;3.85;3.10;;;;;;;;;;4975149;28;20097;-75
2022/03/07 13:58:46;;;;;;;4.50;3.20;;;;;;;;;;4983526;28;20479;-70
2022/03/07 14:01:16;;;;;;;5.10;3.03;;;;;;;;;;4975471;28;20035;-75
2022/03/07 14:04:14;;;;;;;3.50;2.50;;;;;;;;;;4993212;28;20226;-77
2022/03/07 14:06:44;;;;;;;6.97;3.00;;;;;;;;;;4977734;28;20050;-70
2022/03/07 14:09:33;;;;;;;7.00;3.50;;;;;;;;;;4980743;28;20041;-70
2022/03/07 14:12:01;;;;;;;3.47;3.03;;;;;;;;;;4990317;28;20565;-74
2022/03/07 14:14:31;;;;;;;4.45;3.05;;;;;;;;;;4998255;28;20121;-70
2022/03/07 14:17:00;;;;;;;5.15;3.00;;;;;;;;;;4974858;28;20049;-77
2022/03/07 14:19:28;;;;;;;4.25;3.13;;;;;;;;;;4980194;28;20494;-75
2022/03/07 14:21:57;;;;;;;5.60;3.38;;;;;;;;;;4974987;28;20078;-77
2022/03/07 14:24:24;;;;;;;6.57;3.47;;;;;;;;;;4997702;28;20037;-75
2022/03/07 14:26:52;;;;;;;7.32;3.40;;;;;;;;;;4997355;28;20038;-71
2022/03/07 14:29:19;;;;;;;4.78;3.20;;;;;;;;;;4981291;28;20538;-73
2022/03/07 14:31:47;;;;;;;5.10;3.05;;;;;;;;;;4974453;28;20490;-75
2022/03/07 14:34:14;;;;;;;6.38;3.13;;;;;;;;;;4989368;28;20046;-74
2022/03/07 14:36:44;;;;;;;7.57;3.85;;;;;;;;;;4994596;28;20050;-75
2022/03/07 14:39:12;;;;;;;5.57;3.40;;;;;;;;;;4960980;28;20057;-75
2022/03/07 14:41:41;;;;;;;5.97;3.35;;;;;;;;;;4992620;28;20043;-76
2022/03/07 14:44:29;;;;;;;4.47;2.97;;;;;;;;;;4991283;28;20041;-76
2022/03/07 14:47:00;;;;;;;5.88;3.05;;;;;;;;;;4993324;28;20046;-74
2022/03/07 14:49:28;;;;;;;7.15;3.55;;;;;;;;;;4992924;28;20050;-70
2022/03/07 14:51:56;;;;;;;5.05;3.10;;;;;;;;;;4988183;28;20041;-76
2022/03/07 14:54:23;;;;;;;3.63;2.92;;;;;;;;;;4975635;28;20045;-74